createdAt,value
2019-02-23T00:02:22.033Z,24.02
2019-02-23T00:04:50.164Z,23.99
2019-02-23T00:07:18.312Z,23.96
2019-02-23T00:09:46.466Z,23.99
2019-02-23T00:12:14.741Z,23.99
2019-02-23T00:14:42.935Z,24.00
2019-02-23T00:17:11.229Z,23.98
2019-02-23T00:19:39.420Z,23.99
2019-02-23T00:22:07.638Z,23.97
2019-02-23T00:24:36.918Z,24.00
2019-02-23T00:27:05.146Z,24.02
2019-02-23T00:29:33.363Z,24.03
2019-02-23T00:32:01.541Z,23.98
2019-02-23T00:34:29.744Z,23.98
2019-02-23T00:36:57.994Z,23.95
2019-02-23T00:39:26.212Z,23.97
2019-02-23T00:41:54.430Z,23.96
2019-02-23T00:44:22.694Z,23.97
2019-02-23T00:46:50.843Z,23.96
2019-02-23T00:49:18.996Z,23.93
2019-02-23T00:51:47.180Z,23.94
2019-02-23T00:54:15.366Z,23.91
2019-02-23T00:56:43.544Z,23.92
2019-02-23T00:59:11.722Z,23.91
2019-02-23T01:01:39.870Z,23.87
2019-02-23T01:04:08.054Z,23.90
2019-02-23T01:06:36.233Z,23.86
2019-02-23T01:09:05.029Z,23.85
2019-02-23T01:11:33.229Z,23.85
2019-02-23T01:14:01.393Z,23.86
2019-02-23T01:16:29.604Z,23.83
2019-02-23T01:18:57.826Z,23.80
2019-02-23T01:21:26.095Z,23.82
2019-02-23T01:23:54.312Z,23.83
2019-02-23T01:26:22.482Z,23.78
2019-02-23T01:28:50.663Z,23.80
2019-02-23T01:31:18.832Z,23.80
2019-02-23T01:33:47.164Z,23.78
2019-02-23T01:36:15.345Z,23.74
2019-02-23T01:38:43.554Z,23.71
2019-02-23T01:41:11.767Z,23.72
2019-02-23T01:43:39.977Z,23.73
2019-02-23T01:46:08.533Z,23.70
2019-02-23T01:48:36.913Z,23.73
2019-02-23T01:51:05.052Z,23.69
2019-02-23T01:53:33.270Z,23.70
2019-02-23T01:56:01.437Z,23.71
2019-02-23T01:58:29.661Z,23.68
2019-02-23T02:00:57.925Z,23.73
2019-02-23T02:03:26.084Z,23.70
2019-02-23T02:05:54.242Z,23.68
2019-02-23T02:08:22.631Z,23.68
2019-02-23T02:10:50.839Z,23.66
2019-02-23T02:13:20.090Z,23.67
2019-02-23T02:15:48.547Z,23.64
2019-02-23T02:18:16.711Z,23.63
2019-02-23T02:20:44.861Z,23.62
2019-02-23T02:23:13.057Z,23.65
2019-02-23T02:25:41.209Z,23.65
2019-02-23T02:28:09.771Z,23.60
2019-02-23T02:30:37.941Z,23.59
2019-02-23T02:33:06.298Z,23.61
2019-02-23T02:35:34.536Z,23.58
2019-02-23T02:38:02.740Z,23.57
2019-02-23T02:40:31.052Z,23.54
2019-02-23T02:42:59.210Z,23.57
2019-02-23T02:45:27.359Z,23.54
2019-02-23T02:47:55.562Z,23.49
2019-02-23T02:50:24.956Z,23.56
2019-02-23T02:52:53.149Z,23.52
2019-02-23T02:57:48.327Z,23.49
2019-02-23T03:00:16.492Z,23.52
2019-02-23T03:02:44.707Z,23.51
2019-02-23T03:05:12.907Z,23.48
2019-02-23T03:07:41.056Z,23.46
2019-02-23T03:10:09.278Z,23.46
2019-02-23T03:12:37.455Z,23.42
2019-02-23T03:15:06.222Z,23.42
2019-02-23T03:17:34.406Z,23.44
2019-02-23T03:20:02.589Z,23.40
2019-02-23T03:22:30.728Z,23.41
2019-02-23T03:24:58.998Z,23.41
2019-02-23T03:27:27.128Z,23.41
2019-02-23T03:29:55.283Z,23.42
2019-02-23T03:32:23.480Z,23.38
2019-02-23T03:34:51.692Z,23.39
2019-02-23T03:37:19.834Z,23.38
2019-02-23T03:39:48.065Z,23.39
2019-02-23T03:42:16.276Z,23.35
2019-02-23T03:44:44.459Z,23.37
2019-02-23T03:47:12.769Z,23.40
2019-02-23T03:49:40.976Z,23.37
2019-02-23T03:52:09.124Z,23.38
2019-02-23T03:54:37.413Z,23.38
2019-02-23T03:57:05.553Z,23.27
2019-02-23T03:59:33.781Z,23.35
2019-02-23T04:02:02.280Z,23.35
2019-02-23T04:04:30.469Z,23.35
2019-02-23T04:06:58.654Z,23.32
2019-02-23T04:09:26.900Z,23.33
2019-02-23T04:11:55.072Z,23.30
2019-02-23T04:14:23.222Z,23.29
2019-02-23T04:16:51.403Z,23.29
2019-02-23T04:19:19.573Z,23.28
2019-02-23T04:21:47.755Z,23.29
2019-02-23T04:24:15.978Z,23.26
2019-02-23T04:26:44.177Z,23.25
2019-02-23T04:29:12.342Z,23.27
2019-02-23T04:31:40.512Z,23.24
2019-02-23T04:34:08.757Z,23.25
2019-02-23T04:36:36.892Z,23.22
2019-02-23T04:39:05.773Z,23.21
2019-02-23T04:41:33.931Z,23.23
2019-02-23T04:44:02.107Z,23.23
2019-02-23T04:46:30.287Z,23.25
2019-02-23T04:48:58.469Z,23.17
2019-02-23T04:51:26.628Z,23.15
2019-02-23T04:53:54.890Z,23.13
2019-02-23T04:56:23.066Z,23.13
2019-02-23T04:58:51.225Z,23.09
2019-02-23T05:01:19.408Z,23.10
2019-02-23T05:03:47.602Z,23.11
2019-02-23T05:06:15.783Z,23.09
2019-02-23T05:08:43.948Z,23.06
2019-02-23T05:11:12.149Z,23.06
2019-02-23T05:13:40.360Z,23.06
2019-02-23T05:16:08.742Z,23.06
2019-02-23T05:18:37.031Z,23.03
2019-02-23T05:21:05.213Z,22.99
2019-02-23T05:23:33.613Z,22.99
2019-02-23T05:26:01.786Z,22.98
2019-02-23T05:28:30.047Z,23.00
2019-02-23T05:30:58.223Z,23.00
2019-02-23T05:33:26.436Z,22.97
2019-02-23T05:35:54.567Z,22.99
2019-02-23T05:38:22.742Z,22.98
2019-02-23T05:40:50.985Z,22.98
2019-02-23T05:43:19.187Z,22.98
2019-02-23T05:45:47.350Z,22.96
2019-02-23T05:48:20.187Z,22.97
2019-02-23T05:50:48.408Z,22.95
2019-02-23T05:53:16.581Z,22.92
2019-02-23T05:55:44.708Z,22.92
2019-02-23T05:58:12.910Z,22.90
2019-02-23T06:00:41.169Z,22.89
2019-02-23T06:03:09.370Z,22.88
2019-02-23T06:05:37.587Z,22.89
2019-02-23T06:08:06.236Z,22.89
2019-02-23T06:10:34.445Z,22.95
2019-02-23T06:13:02.691Z,22.91
2019-02-23T06:15:30.886Z,22.89
2019-02-23T06:17:59.172Z,22.90
2019-02-23T06:20:27.405Z,22.92
2019-02-23T06:22:55.583Z,22.96
2019-02-23T06:25:23.813Z,22.93
2019-02-23T06:27:52.004Z,22.93
2019-02-23T06:30:20.189Z,22.94
2019-02-23T06:32:48.430Z,22.91
2019-02-23T06:35:16.710Z,22.90
2019-02-23T06:37:44.921Z,22.90
2019-02-23T06:40:13.311Z,22.91
2019-02-23T06:42:41.484Z,22.88
2019-02-23T06:45:09.815Z,22.88
2019-02-23T06:47:38.044Z,22.91
2019-02-23T06:50:06.361Z,22.91
2019-02-23T06:52:36.656Z,22.91
2019-02-23T06:55:04.866Z,22.91
2019-02-23T06:57:33.048Z,22.92
2019-02-23T07:00:01.573Z,22.90
2019-02-23T07:02:29.898Z,22.89
2019-02-23T07:04:58.151Z,22.89
2019-02-23T07:07:26.402Z,22.88
2019-02-23T07:09:54.643Z,22.86
2019-02-23T07:12:22.834Z,22.88
2019-02-23T07:14:50.973Z,22.87
2019-02-23T07:17:19.188Z,22.84
2019-02-23T07:19:47.381Z,22.85
2019-02-23T07:22:16.046Z,22.90
2019-02-23T07:24:44.354Z,22.82
2019-02-23T07:27:12.695Z,22.84
2019-02-23T07:29:41.204Z,22.85
2019-02-23T07:32:09.604Z,22.83
2019-02-23T07:34:37.798Z,22.81
2019-02-23T07:37:06.024Z,22.82
2019-02-23T07:39:34.302Z,22.82
2019-02-23T07:42:02.934Z,22.80
2019-02-23T07:44:31.051Z,22.82
2019-02-23T07:46:59.844Z,22.78
2019-02-23T07:49:28.411Z,22.78
2019-02-23T07:51:56.786Z,22.82
2019-02-23T07:54:25.041Z,22.89
2019-02-23T07:56:53.452Z,22.93
2019-02-23T07:59:22.029Z,22.93
2019-02-23T08:01:50.161Z,22.90
2019-02-23T08:04:18.330Z,22.89
2019-02-23T08:06:46.587Z,22.90
2019-02-23T08:09:15.456Z,22.90
2019-02-23T08:11:43.836Z,22.90
2019-02-23T08:14:12.312Z,22.86
2019-02-23T08:16:40.541Z,22.89
2019-02-23T08:19:08.802Z,22.93
2019-02-23T08:21:37.370Z,22.89
2019-02-23T08:24:05.702Z,22.91
2019-02-23T08:26:34.416Z,22.88
2019-02-23T08:29:03.051Z,23.01
2019-02-23T08:31:31.240Z,23.12
2019-02-23T08:33:59.545Z,23.17
2019-02-23T08:36:27.800Z,23.21
2019-02-23T08:38:55.964Z,23.29
2019-02-23T08:41:25.480Z,23.32
2019-02-23T08:43:53.787Z,23.30
2019-02-23T08:46:22.448Z,23.17
2019-02-23T08:48:51.468Z,23.18
2019-02-23T08:51:20.095Z,23.11
2019-02-23T08:53:48.665Z,23.00
2019-02-23T08:56:17.269Z,22.97
2019-02-23T08:58:45.592Z,23.14
2019-02-23T09:01:14.051Z,23.23
2019-02-23T09:03:42.460Z,23.24
2019-02-23T09:06:10.720Z,23.31
2019-02-23T09:08:39.189Z,23.39
2019-02-23T09:11:07.773Z,23.37
2019-02-23T09:13:35.980Z,23.31
2019-02-23T09:16:04.421Z,23.30
2019-02-23T09:18:32.620Z,23.34
2019-02-23T09:21:00.790Z,23.13
2019-02-23T09:23:29.762Z,23.07
2019-02-23T09:25:57.948Z,23.10
2019-02-23T09:28:26.350Z,23.12
2019-02-23T09:30:54.550Z,23.20
2019-02-23T09:33:22.766Z,23.22
2019-02-23T09:35:50.994Z,23.23
2019-02-23T09:38:19.529Z,23.26
2019-02-23T09:40:48.035Z,23.25
2019-02-23T09:43:17.827Z,23.24
2019-02-23T09:45:46.735Z,23.21
2019-02-23T09:48:15.095Z,23.24
2019-02-23T09:50:43.275Z,23.22
2019-02-23T09:53:11.720Z,23.23
2019-02-23T09:55:39.878Z,23.29
2019-02-23T09:58:08.028Z,23.30
2019-02-23T10:00:36.358Z,23.30
2019-02-23T10:03:07.464Z,23.26
2019-02-23T10:05:38.055Z,23.26
2019-02-23T10:08:05.674Z,23.28
2019-02-23T10:10:33.868Z,23.28
2019-02-23T10:13:02.209Z,23.32
2019-02-23T10:15:30.364Z,23.16
2019-02-23T10:17:58.521Z,23.28
2019-02-23T10:20:26.695Z,23.35
2019-02-23T10:22:55.968Z,23.37
2019-02-23T10:25:24.162Z,23.36
2019-02-23T10:27:52.352Z,23.37
2019-02-23T10:30:20.586Z,23.37
2019-02-23T10:32:48.775Z,23.37
2019-02-23T10:35:20.095Z,23.39
2019-02-23T10:37:48.326Z,23.45
2019-02-23T10:40:16.477Z,23.49
2019-02-23T10:42:44.639Z,23.46
2019-02-23T10:45:12.897Z,22.93
2019-02-23T10:50:08.393Z,23.51
2019-02-23T10:52:36.814Z,23.49
2019-02-23T10:57:31.904Z,23.55
2019-02-23T11:00:00.054Z,23.56
2019-02-23T11:02:28.197Z,23.57
2019-02-23T11:04:56.332Z,23.52
2019-02-23T11:07:24.472Z,23.47
2019-02-23T11:09:52.613Z,23.51
2019-02-23T11:12:20.756Z,23.51
2019-02-23T11:14:48.881Z,23.56
2019-02-23T11:17:17.032Z,23.53
2019-02-23T11:19:45.174Z,23.48
2019-02-23T11:22:13.328Z,23.44
2019-02-23T11:24:41.459Z,23.43
2019-02-23T11:27:09.720Z,23.38
2019-02-23T11:29:37.878Z,23.36
2019-02-23T11:32:06.112Z,23.10
2019-02-23T11:34:34.274Z,23.31
2019-02-23T11:37:02.432Z,23.30
2019-02-23T11:39:30.577Z,23.29
2019-02-23T11:41:58.713Z,23.27
2019-02-23T11:44:26.949Z,23.27
2019-02-23T11:47:02.025Z,23.30
2019-02-23T11:49:24.934Z,23.24
2019-02-23T11:51:53.148Z,23.20
2019-02-23T11:54:21.367Z,23.35
2019-02-23T11:56:49.959Z,23.36
2019-02-23T11:59:18.059Z,23.41
2019-02-23T12:01:46.189Z,23.51
2019-02-23T12:04:14.334Z,23.48
2019-02-23T12:09:09.440Z,23.56
2019-02-23T12:11:37.582Z,23.36
2019-02-23T12:14:05.725Z,23.42
2019-02-23T12:16:33.858Z,23.38
2019-02-23T12:19:02.001Z,23.39
2019-02-23T12:21:30.658Z,23.32
2019-02-23T12:24:05.922Z,23.37
2019-02-23T12:26:29.194Z,23.40
2019-02-23T12:28:57.758Z,23.44
2019-02-23T12:31:26.192Z,23.32
2019-02-23T12:33:54.385Z,23.28
2019-02-23T12:36:22.544Z,23.31
2019-02-23T12:38:50.737Z,23.32
2019-02-23T12:41:18.891Z,23.31
2019-02-23T12:43:47.045Z,23.31
2019-02-23T12:46:15.196Z,23.36
2019-02-23T12:48:43.391Z,23.54
2019-02-23T12:51:11.595Z,23.43
2019-02-23T12:53:39.784Z,23.36
2019-02-23T12:56:08.008Z,23.30
2019-02-23T12:58:36.348Z,23.34
2019-02-23T13:01:04.802Z,23.35
2019-02-23T13:03:33.026Z,23.35
2019-02-23T13:06:01.270Z,23.32
2019-02-23T13:08:48.547Z,23.42
2019-02-23T13:11:16.709Z,23.37
2019-02-23T13:14:02.464Z,23.40
2019-02-23T13:16:43.448Z,23.38
2019-02-23T13:19:30.292Z,23.41
2019-02-23T13:22:20.607Z,23.36
2019-02-23T13:25:26.386Z,23.45
2019-02-23T13:28:25.715Z,23.41
2019-02-23T13:31:15.672Z,23.44
2019-02-23T13:33:55.192Z,23.46
2019-02-23T13:36:32.932Z,23.49
2019-02-23T13:39:05.841Z,23.49
2019-02-23T13:41:52.304Z,23.47
2019-02-23T13:44:55.050Z,23.47
2019-02-23T13:47:47.922Z,23.51
2019-02-23T13:50:19.163Z,23.51
2019-02-23T13:52:52.365Z,23.55
2019-02-23T13:55:26.934Z,23.54
2019-02-23T13:57:56.950Z,23.57
2019-02-23T14:00:43.169Z,23.58
2019-02-23T14:03:30.470Z,23.59
2019-02-23T14:06:16.376Z,23.60
2019-02-23T14:09:02.268Z,23.53
2019-02-23T14:11:50.510Z,23.49
2019-02-23T14:14:31.998Z,23.51
2019-02-23T14:17:08.869Z,23.47
2019-02-23T14:20:02.058Z,23.52
2019-02-23T14:22:49.413Z,23.49
2019-02-23T14:25:39.839Z,23.48
2019-02-23T14:28:39.561Z,23.46
2019-02-23T14:31:29.358Z,23.44
2019-02-23T14:34:16.777Z,23.40
2019-02-23T14:36:50.056Z,23.42
2019-02-23T14:39:41.066Z,23.35
2019-02-23T14:42:12.350Z,23.37
2019-02-23T14:44:58.223Z,23.40
2019-02-23T14:47:54.680Z,23.38
2019-02-23T14:50:48.108Z,23.42
2019-02-23T14:53:32.672Z,23.36
2019-02-23T14:56:19.881Z,23.35
2019-02-23T14:59:07.138Z,23.40
2019-02-23T15:01:54.390Z,23.49
2019-02-23T15:04:41.696Z,23.54
2019-02-23T15:07:29.600Z,23.54
2019-02-23T15:10:16.829Z,23.54
2019-02-23T15:13:04.122Z,23.54
2019-02-23T15:15:51.390Z,23.42
2019-02-23T15:18:38.605Z,23.29
2019-02-23T15:21:10.705Z,23.32
2019-02-23T15:23:57.947Z,23.34
2019-02-23T15:26:45.207Z,23.31
2019-02-23T15:29:32.499Z,23.33
2019-02-23T15:32:19.726Z,23.21
2019-02-23T15:35:06.986Z,23.28
2019-02-23T15:37:54.255Z,23.29
2019-02-23T15:40:41.668Z,23.30
2019-02-23T15:43:28.928Z,23.21
2019-02-23T15:46:16.320Z,23.19
2019-02-23T15:49:03.573Z,23.19
2019-02-23T15:51:31.729Z,23.19
2019-02-23T15:53:59.868Z,23.22
2019-02-23T15:56:28.011Z,23.17
2019-02-23T15:58:56.146Z,23.16
2019-02-23T16:01:24.290Z,23.14
2019-02-23T16:04:11.555Z,23.11
2019-02-23T16:06:39.691Z,23.07
2019-02-23T16:09:07.841Z,23.17
2019-02-23T16:11:36.006Z,23.11
2019-02-23T16:16:38.161Z,23.05
2019-02-23T16:19:06.295Z,23.05
2019-02-23T16:21:34.437Z,23.03
2019-02-23T16:24:02.572Z,23.02
2019-02-23T16:26:30.748Z,23.01
2019-02-23T16:28:58.887Z,23.04
2019-02-23T16:31:27.021Z,23.10
2019-02-23T16:33:55.218Z,23.06
2019-02-23T16:36:23.355Z,22.92
2019-02-23T16:38:51.571Z,22.94
2019-02-23T16:41:19.756Z,22.91
2019-02-23T16:43:47.900Z,22.91
2019-02-23T16:46:16.044Z,22.94
2019-02-23T16:48:44.189Z,22.91
2019-02-23T16:51:12.357Z,22.91
2019-02-23T16:53:40.498Z,22.84
2019-02-23T16:56:27.762Z,22.89
2019-02-23T16:58:55.907Z,22.90
2019-02-23T17:01:24.041Z,22.83
2019-02-23T17:03:52.270Z,22.85
2019-02-23T17:06:20.476Z,22.87
2019-02-23T17:08:48.851Z,22.82
2019-02-23T17:11:17.280Z,22.88
2019-02-23T17:13:46.181Z,22.85
2019-02-23T17:16:15.014Z,22.82
2019-02-23T17:19:02.190Z,22.82
2019-02-23T17:21:49.479Z,22.83
2019-02-23T17:24:18.139Z,22.82
2019-02-23T17:26:46.808Z,22.85
2019-02-23T17:29:14.920Z,22.86
2019-02-23T17:31:43.141Z,22.87
2019-02-23T17:34:11.395Z,22.90
2019-02-23T17:36:39.582Z,22.83
2019-02-23T17:44:16.082Z,22.82
2019-02-23T17:46:44.256Z,22.84
2019-02-23T17:49:12.436Z,22.82
2019-02-23T17:51:40.641Z,22.85
2019-02-23T17:54:08.843Z,22.80
2019-02-23T17:56:56.091Z,22.80
2019-02-23T17:59:24.228Z,22.83
2019-02-23T18:01:52.399Z,22.81
2019-02-23T18:04:20.556Z,22.82
2019-02-23T18:06:48.693Z,22.83
2019-02-23T18:09:16.859Z,22.79
2019-02-23T18:11:45.011Z,22.77
2019-02-23T18:14:13.160Z,22.74
2019-02-23T18:16:41.300Z,22.74
2019-02-23T18:19:09.517Z,22.72
2019-02-23T18:21:37.673Z,22.73
2019-02-23T18:24:05.808Z,22.71
2019-02-23T18:26:33.982Z,22.73
2019-02-23T18:29:02.135Z,22.71
2019-02-23T18:31:30.262Z,22.72
2019-02-23T18:33:58.425Z,22.71
2019-02-23T18:36:26.574Z,22.68
2019-02-23T18:38:54.732Z,22.69
2019-02-23T18:41:22.877Z,22.71
2019-02-23T18:43:51.017Z,22.71
2019-02-23T18:46:19.143Z,22.71
2019-02-23T18:49:06.224Z,22.73
2019-02-23T18:54:21.529Z,22.69
2019-02-23T18:56:49.659Z,22.67
2019-02-23T18:59:17.822Z,22.71
2019-02-23T19:01:45.949Z,22.67
2019-02-23T19:04:14.273Z,22.67
2019-02-23T19:06:42.402Z,22.67
2019-02-23T19:09:10.544Z,22.64
2019-02-23T19:11:38.702Z,22.62
2019-02-23T19:14:06.849Z,22.62
2019-02-23T19:16:34.987Z,22.62
2019-02-23T19:19:03.162Z,22.65
2019-02-23T19:21:31.309Z,22.62
2019-02-23T19:23:59.645Z,22.62
2019-02-23T19:26:27.784Z,22.61
2019-02-23T19:28:55.927Z,22.60
2019-02-23T19:31:24.113Z,22.61
2019-02-23T19:33:52.282Z,22.58
2019-02-23T19:36:39.342Z,22.58
2019-02-23T19:39:07.477Z,22.56
2019-02-23T19:41:35.654Z,22.60
2019-02-23T19:44:04.041Z,22.58
2019-02-23T19:46:32.238Z,22.58
2019-02-23T19:49:01.898Z,22.58
2019-02-23T19:51:30.171Z,22.57
2019-02-23T19:53:58.388Z,22.56
2019-02-23T19:56:26.642Z,22.53
2019-02-23T19:58:54.875Z,22.53
2019-02-23T20:01:23.051Z,22.54
2019-02-23T20:06:38.483Z,22.53
2019-02-23T20:09:06.612Z,22.51
2019-02-23T20:11:53.805Z,22.51
2019-02-23T20:14:22.198Z,22.51
2019-02-23T20:16:50.789Z,22.48
2019-02-23T20:19:19.799Z,22.49
2019-02-23T20:22:08.246Z,22.47
2019-02-23T20:29:59.822Z,22.44
2019-02-23T20:32:28.188Z,22.43
2019-02-23T20:34:56.627Z,22.42
2019-02-23T20:37:44.036Z,22.42
2019-02-23T20:40:12.429Z,22.42
2019-02-23T20:42:40.877Z,22.39
2019-02-23T20:48:15.974Z,22.34
2019-02-23T20:50:44.240Z,22.36
2019-02-23T20:53:12.414Z,22.36
2019-02-23T20:55:40.960Z,22.34
2019-02-23T20:58:09.168Z,22.32
2019-02-23T21:00:37.307Z,22.33
2019-02-23T21:03:05.559Z,22.29
2019-02-23T21:05:33.777Z,22.30
2019-02-23T21:08:01.962Z,22.28
2019-02-23T21:10:30.112Z,22.30
2019-02-23T21:12:58.303Z,22.27
2019-02-23T21:15:26.471Z,22.28
2019-02-23T21:17:54.839Z,22.29
2019-02-23T21:20:22.980Z,22.28
2019-02-23T21:22:51.153Z,22.26
2019-02-23T21:25:19.375Z,22.25
2019-02-23T21:27:47.585Z,22.26
2019-02-23T21:30:15.784Z,22.24
2019-02-23T21:32:44.003Z,22.21
2019-02-23T21:35:12.174Z,22.20
2019-02-23T21:37:40.451Z,22.22
2019-02-23T21:40:08.737Z,22.18
2019-02-23T21:42:36.952Z,22.17
2019-02-23T21:45:05.348Z,22.19
2019-02-23T21:47:33.565Z,22.19
2019-02-23T21:50:01.802Z,22.19
2019-02-23T21:52:29.974Z,22.18
2019-02-23T21:54:58.137Z,22.15
2019-02-23T21:57:28.616Z,22.15
2019-02-23T21:59:56.838Z,22.12
2019-02-23T22:02:24.996Z,22.15
2019-02-23T22:04:53.195Z,22.14
2019-02-23T22:07:21.359Z,22.11
2019-02-23T22:09:49.580Z,22.11
2019-02-23T22:12:17.714Z,22.13
2019-02-23T22:14:45.994Z,22.08
2019-02-23T22:17:14.211Z,22.10
2019-02-23T22:19:42.391Z,22.06
2019-02-23T22:22:10.560Z,22.09
2019-02-23T22:24:38.766Z,22.07
2019-02-23T22:27:06.920Z,22.08
2019-02-23T22:29:35.207Z,22.04
2019-02-23T22:32:03.445Z,22.05
2019-02-23T22:34:31.691Z,22.03
2019-02-23T22:36:59.838Z,22.03
2019-02-23T22:39:27.964Z,22.02
2019-02-23T22:41:56.158Z,22.00
2019-02-23T22:44:24.329Z,22.00
2019-02-23T22:46:52.518Z,22.02
2019-02-23T22:49:20.769Z,22.00
2019-02-23T22:51:48.932Z,21.98
2019-02-23T22:54:17.138Z,22.01
2019-02-23T22:56:45.351Z,21.98
2019-02-23T22:59:13.562Z,21.97
2019-02-23T23:01:41.822Z,21.97
2019-02-23T23:04:10.009Z,21.95
2019-02-23T23:06:40.977Z,21.93
2019-02-23T23:09:14.270Z,21.91
2019-02-23T23:11:42.419Z,21.94
2019-02-23T23:14:10.616Z,21.92
2019-02-23T23:16:38.824Z,21.93
2019-02-23T23:19:07.035Z,21.87
2019-02-23T23:21:35.196Z,21.93
2019-02-23T23:24:03.385Z,21.88
2019-02-23T23:26:31.599Z,21.86
2019-02-23T23:28:59.795Z,21.85
2019-02-23T23:31:28.107Z,21.85
2019-02-23T23:33:56.356Z,21.84
2019-02-23T23:36:24.620Z,21.83
2019-02-23T23:38:52.768Z,21.81
2019-02-23T23:41:20.943Z,21.84
2019-02-23T23:43:49.161Z,21.81
2019-02-23T23:46:17.411Z,21.83
2019-02-23T23:48:45.568Z,21.81
2019-02-23T23:51:13.756Z,21.79
2019-02-23T23:53:41.964Z,21.77
2019-02-23T23:56:10.103Z,21.78
2019-02-23T23:58:38.308Z,21.77
